Time;durP1;ratioP1;P1;durP2;ratioP2;P2;SDS_P1;SDS_P2;PMS_P1;PMS_P2;Temp;Humidity;BMP_temperature;BMP_pressure;BME280_temperature;BME280_humidity;BME280_pressure;Samples;Min_cycle;Max_cycle;Signal;HPM_P1;HPM_P2
2021/05/04 00:01:43;;;;;;;39.97;24.40;;;;;;;18.85;38.63;100229.97;5118150;28;20480;-46
2021/05/04 00:04:10;;;;;;;49.93;27.80;;;;;;;19.48;37.65;100219.41;5116823;28;20834;-50
2021/05/04 00:06:37;;;;;;;38.37;22.37;;;;;;;18.45;38.61;100216.88;5118735;28;20467;-48
2021/05/04 00:09:05;;;;;;;55.70;30.67;;;;;;;19.48;38.83;100198.47;5117335;28;20484;-48
2021/05/04 00:11:32;;;;;;;44.27;24.80;;;;;;;18.98;38.51;100188.13;5118266;28;20568;-46
2021/05/04 00:13:58;;;;;;;40.30;23.53;;;;;;;19.25;37.84;100188.94;5115470;28;20487;-49
2021/05/04 00:16:25;;;;;;;60.00;32.40;;;;;;;18.97;38.16;100179.41;5118696;28;20461;-47
2021/05/04 00:18:52;;;;;;;37.00;21.40;;;;;;;18.79;38.12;100168.97;5117530;28;20462;-54
2021/05/04 00:21:18;;;;;;;212.10;100.23;;;;;;;19.33;38.44;100147.09;5118634;28;20556;-50
2021/05/04 00:23:45;;;;;;;39.83;23.73;;;;;;;18.61;38.17;100127.22;5117318;28;20491;-50
2021/05/04 00:26:12;;;;;;;88.83;45.37;;;;;;;18.66;38.90;100110.66;5118325;28;20567;-50
2021/05/04 00:28:39;;;;;;;39.30;23.07;;;;;;;18.99;37.95;100114.94;5117185;28;20564;-52
2021/05/04 00:31:05;;;;;;;209.53;100.40;;;;;;;19.19;39.28;100103.56;5118363;28;20834;-48
2021/05/04 00:33:32;;;;;;;29.60;18.03;;;;;;;18.53;38.48;100088.91;5117323;28;20858;-50
2021/05/04 00:35:59;;;;;;;47.63;27.50;;;;;;;18.35;39.47;100072.41;5118356;28;20453;-54
2021/05/04 00:38:25;;;;;;;37.93;21.37;;;;;;;18.27;39.39;100050.66;5116410;28;20481;-51
2021/05/04 00:40:52;;;;;;;188.93;90.63;;;;;;;18.25;40.07;100052.41;5117848;28;20469;-49
2021/05/04 00:43:24;;;;;;;98.70;49.40;;;;;;;18.21;38.49;100043.72;5117153;28;20491;-51
2021/05/04 00:45:51;;;;;;;27.43;17.13;;;;;;;17.48;40.10;100043.66;5118288;28;20484;-50
2021/05/04 00:48:18;;;;;;;102.33;47.33;;;;;;;18.40;38.25;100030.63;5116850;28;20510;-49
2021/05/04 00:50:45;;;;;;;25.43;16.40;;;;;;;17.65;39.88;100022.81;5117827;28;20457;-46
2021/05/04 00:53:11;;;;;;;26.00;17.33;;;;;;;18.16;39.00;100011.53;5118290;28;20797;-48
2021/05/04 00:55:38;;;;;;;141.23;68.20;;;;;;;19.04;37.91;100013.00;5091650;28;20489;-50
2021/05/04 00:58:05;;;;;;;82.27;39.90;;;;;;;19.41;37.14;100006.69;5118402;28;20466;-50
2021/05/04 01:00:33;;;;;;;89.20;45.87;;;;;;;18.61;37.77;99999.22;5116610;28;20485;-47
2021/05/04 01:03:00;;;;;;;28.03;17.00;;;;;;;18.61;37.74;100003.59;5117630;28;20481;-49
2021/05/04 01:05:27;;;;;;;194.87;91.63;;;;;;;18.11;39.04;100019.38;5115587;28;20495;-49
2021/05/04 01:07:54;;;;;;;59.50;30.07;;;;;;;18.76;38.56;99993.06;5117834;28;20454;-48
2021/05/04 01:10:20;;;;;;;110.30;52.77;;;;;;;19.20;37.00;99979.81;5115548;28;20948;-50
2021/05/04 01:12:48;;;;;;;51.20;26.77;;;;;;;18.96;37.20;99976.41;5117645;28;20481;-49
2021/05/04 01:15:14;;;;;;;109.57;52.27;;;;;;;19.18;36.44;99978.97;5116335;28;20475;-47
2021/05/04 01:17:42;;;;;;;74.30;35.93;;;;;;;19.39;36.12;99962.22;5117018;28;20458;-48
2021/05/04 01:20:10;;;;;;;28.63;16.53;;;;;;;19.34;35.69;99942.22;5115622;28;20483;-50
2021/05/04 01:22:37;;;;;;;57.50;30.97;;;;;;;19.12;36.25;99951.09;5117446;28;20485;-50
2021/05/04 01:25:06;;;;;;;89.37;46.17;;;;;;;19.23;36.59;99955.41;5115836;28;20491;-50
2021/05/04 01:27:32;;;;;;;28.13;17.00;;;;;;;18.23;37.40;99966.25;5117518;28;20457;-51
2021/05/04 01:29:59;;;;;;;25.50;13.80;;;;;;;17.57;39.90;99977.63;5113947;28;20564;-49
2021/05/04 01:32:26;;;;;;;30.70;18.43;;;;;;;18.01;38.47;99960.19;5095955;28;20489;-51
2021/05/04 01:34:52;;;;;;;36.07;19.17;;;;;;;18.39;38.11;99954.03;5095430;28;20486;-51
2021/05/04 01:37:19;;;;;;;25.03;14.10;;;;;;;18.09;38.92;99924.53;5097022;28;20452;-49
2021/05/04 01:39:48;;;;;;;106.63;51.30;;;;;;;18.28;39.13;99912.28;5094972;28;20478;-49
2021/05/04 01:42:16;;;;;;;32.70;17.47;;;;;;;18.76;39.12;99909.47;5096712;28;20473;-49
2021/05/04 01:44:44;;;;;;;29.27;17.13;;;;;;;18.14;39.65;99901.03;5095295;28;20487;-47
2021/05/04 01:47:11;;;;;;;27.70;15.87;;;;;;;19.18;36.69;99890.06;5096573;28;20460;-49
2021/05/04 01:49:38;;;;;;;26.73;16.23;;;;;;;18.74;37.49;99881.59;5093871;28;20999;-51
2021/05/04 01:52:07;;;;;;;46.07;24.40;;;;;;;18.72;37.59;99862.47;5096609;28;21130;-50
2021/05/04 01:54:33;;;;;;;20.97;14.33;;;;;;;18.71;37.21;99847.69;5091046;28;20479;-49
2021/05/04 01:57:01;;;;;;;21.37;14.27;;;;;;;18.76;37.51;99831.09;5096329;28;20459;-49
2021/05/04 01:59:29;;;;;;;99.33;44.87;;;;;;;18.72;37.27;99825.91;5095008;28;20950;-50
2021/05/04 02:01:55;;;;;;;26.10;14.97;;;;;;;18.06;38.23;99818.38;5095936;28;20480;-46
2021/05/04 02:04:23;;;;;;;45.63;23.80;;;;;;;18.75;38.36;99803.22;5094438;28;20475;-49
2021/05/04 02:06:50;;;;;;;28.73;14.87;;;;;;;18.78;37.85;99785.78;5096304;28;20552;-47
2021/05/04 02:09:16;;;;;;;111.53;54.77;;;;;;;18.78;37.40;99777.94;5085199;28;20486;-46
2021/05/04 02:11:43;;;;;;;28.23;16.57;;;;;;;18.94;38.75;99776.06;5095300;28;20953;-49
2021/05/04 02:14:10;;;;;;;51.27;27.23;;;;;;;18.94;38.35;99771.72;5094723;28;20779;-47
2021/05/04 02:16:37;;;;;;;49.67;26.40;;;;;;;18.90;37.75;99762.16;5096123;28;20898;-51
2021/05/04 02:19:05;;;;;;;172.67;80.67;;;;;;;19.15;36.44;99762.88;5094520;28;20853;-48
2021/05/04 02:21:31;;;;;;;23.00;14.13;;;;;;;18.61;37.11;99758.06;5095761;28;20485;-50
2021/05/04 02:23:58;;;;;;;22.60;13.07;;;;;;;17.69;39.14;99745.44;5095192;28;20459;-52
2021/05/04 02:26:25;;;;;;;31.40;18.47;;;;;;;18.74;38.53;99737.91;5095861;28;20480;-49
2021/05/04 02:28:51;;;;;;;56.90;27.17;;;;;;;19.50;36.54;99734.63;5094638;28;20491;-51
2021/05/04 02:31:18;;;;;;;55.63;30.27;;;;;;;19.26;38.03;99730.50;5095544;28;20478;-48
2021/05/04 02:33:45;;;;;;;64.97;33.50;;;;;;;19.36;36.63;99708.59;5094482;28;20509;-49
2021/05/04 02:36:12;;;;;;;36.67;20.23;;;;;;;19.35;36.08;99695.53;5095697;28;20935;-48
2021/05/04 02:38:39;;;;;;;37.10;20.63;;;;;;;19.14;37.25;99681.84;5091119;28;20455;-51
2021/05/04 02:41:07;;;;;;;107.83;51.17;;;;;;;18.69;37.83;99650.88;5095195;28;20462;-49
2021/05/04 02:43:34;;;;;;;37.70;20.27;;;;;;;18.94;38.07;99634.97;5094643;28;20477;-48
2021/05/04 02:46:03;;;;;;;32.13;17.60;;;;;;;18.28;38.81;99619.91;5095783;28;20479;-51
2021/05/04 02:48:33;;;;;;;32.77;16.70;;;;;;;18.67;37.96;99601.25;5063110;28;20508;-49
2021/05/04 02:51:00;;;;;;;20.50;13.83;;;;;;;18.49;38.76;99611.03;5094382;28;20550;-49
2021/05/04 02:53:26;;;;;;;24.97;14.73;;;;;;;18.53;38.36;99598.81;5089538;28;20457;-51
2021/05/04 02:55:53;;;;;;;40.30;22.50;;;;;;;18.52;38.43;99590.97;5095326;28;20514;-49
2021/05/04 02:58:19;;;;;;;40.60;21.27;;;;;;;18.09;38.52;99585.25;5094291;28;20767;-49
2021/05/04 03:00:47;;;;;;;32.07;19.07;;;;;;;18.62;38.70;99580.41;5095196;28;20486;-53
2021/05/04 03:03:13;;;;;;;43.10;23.07;;;;;;;19.58;37.44;99558.41;5095320;28;21004;-48
2021/05/04 03:05:41;;;;;;;22.37;14.50;;;;;;;19.36;36.43;99553.44;5093393;28;20478;-50
2021/05/04 03:08:08;;;;;;;24.10;15.00;;;;;;;17.88;39.76;99547.97;5095412;28;20901;-47
2021/05/04 03:10:34;;;;;;;106.80;52.63;;;;;;;18.42;40.39;99533.63;5112933;28;20472;-50
2021/05/04 03:13:01;;;;;;;22.53;13.70;;;;;;;18.11;39.12;99523.47;5115569;28;20504;-50
2021/05/04 03:15:27;;;;;;;23.60;12.77;;;;;;;18.53;38.12;99535.25;5105559;28;20929;-47
2021/05/04 03:17:54;;;;;;;20.37;13.47;;;;;;;19.16;37.14;99515.38;5115825;28;20457;-47
2021/05/04 03:20:21;;;;;;;16.93;11.57;;;;;;;19.38;36.61;99499.41;5110120;28;20481;-48
2021/05/04 03:22:55;;;;;;;23.00;11.70;;;;;;;18.98;37.91;99499.00;5115684;28;20983;-49
2021/05/04 03:25:22;;;;;;;30.30;17.63;;;;;;;19.64;36.60;99482.44;5111235;28;20479;-49
2021/05/04 03:27:49;;;;;;;29.30;17.07;;;;;;;19.69;37.51;99491.09;5116064;28;20469;-46
2021/05/04 03:30:16;;;;;;;25.20;14.07;;;;;;;20.43;36.37;99482.84;5118055;28;20481;-49
2021/05/04 03:32:43;;;;;;;31.87;17.67;;;;;;;19.97;37.54;99469.69;5119524;28;20473;-49
2021/05/04 03:35:11;;;;;;;33.37;18.80;;;;;;;19.65;37.03;99471.09;5115543;28;20506;-48
2021/05/04 03:37:38;;;;;;;49.97;25.20;;;;;;;19.29;36.98;99469.88;5119738;28;20485;-52
2021/05/04 03:40:07;;;;;;;29.00;16.13;;;;;;;20.00;37.14;99469.63;5117351;27;20996;-49
2021/05/04 03:42:33;;;;;;;41.47;23.43;;;;;;;18.83;38.53;99460.03;5119635;28;20485;-50
2021/05/04 03:45:00;;;;;;;19.50;11.80;;;;;;;18.08;39.41;99469.56;5116928;28;20488;-49
2021/05/04 03:47:26;;;;;;;91.17;43.53;;;;;;;19.55;38.31;99450.28;5119395;28;20521;-49
2021/05/04 03:49:53;;;;;;;31.97;16.70;;;;;;;19.90;36.58;99444.50;5113504;28;20773;-52
2021/05/04 03:52:20;;;;;;;51.63;25.10;;;;;;;18.62;37.79;99425.47;5119518;28;20508;-51
2021/05/04 03:54:46;;;;;;;27.53;14.30;;;;;;;19.11;36.81;99420.47;5109338;28;20483;-50
2021/05/04 03:57:14;;;;;;;61.10;29.20;;;;;;;18.91;37.36;99398.06;5119394;28;20549;-51
2021/05/04 03:59:41;;;;;;;36.27;19.40;;;;;;;19.35;36.72;99392.22;5116854;28;20555;-48
2021/05/04 04:02:08;;;;;;;50.40;24.03;;;;;;;19.74;36.10;99379.34;5118949;28;20566;-50
2021/05/04 04:04:35;;;;;;;20.27;11.90;;;;;;;18.87;36.67;99372.91;5116859;28;20479;-46
2021/05/04 04:07:01;;;;;;;14.87;9.47;;;;;;;18.81;37.48;99359.91;5119285;28;20468;-51
2021/05/04 04:09:28;;;;;;;18.73;10.50;;;;;;;19.67;36.07;99356.81;5117633;28;20494;-48
2021/05/04 04:11:54;;;;;;;43.87;22.23;;;;;;;19.19;37.32;99349.78;5118582;28;20474;-49
2021/05/04 04:14:22;;;;;;;14.20;8.77;;;;;;;19.46;36.13;99351.06;5117498;28;20785;-49
2021/05/04 04:16:48;;;;;;;11.67;7.90;;;;;;;19.02;36.39;99350.88;5118805;28;20456;-48
2021/05/04 04:19:15;;;;;;;22.70;11.97;;;;;;;19.05;36.43;99345.63;5117292;28;20486;-48
2021/05/04 04:21:41;;;;;;;13.27;8.60;;;;;;;19.55;36.14;99344.81;5118312;28;20481;-49
2021/05/04 04:24:09;;;;;;;12.53;7.70;;;;;;;19.31;36.25;99341.75;5117290;28;20492;-48
2021/05/04 04:26:35;;;;;;;15.37;7.43;;;;;;;19.05;36.34;99334.31;5118642;28;20480;-52
2021/05/04 04:29:02;;;;;;;82.80;40.00;;;;;;;19.77;35.50;99329.59;5116919;28;20497;-47
2021/05/04 04:31:30;;;;;;;67.90;32.87;;;;;;;19.99;34.54;99328.34;5118313;28;20789;-48
2021/05/04 04:33:56;;;;;;;13.03;7.50;;;;;;;19.00;35.62;99316.06;5113395;28;20486;-48
2021/05/04 04:36:23;;;;;;;22.03;12.47;;;;;;;19.33;36.19;99313.81;5118654;28;20545;-46
2021/05/04 04:38:49;;;;;;;13.83;8.20;;;;;;;18.75;37.41;99309.47;5105985;28;20477;-50
2021/05/04 04:41:32;;;;;;;27.43;15.53;;;;;;;18.91;37.29;99304.00;5117812;28;20479;-48
2021/05/04 04:43:58;;;;;;;19.63;11.60;;;;;;;19.07;36.72;99298.56;5112632;28;20928;-51
2021/05/04 04:46:39;;;;;;;17.87;9.50;;;;;;;18.41;37.84;99291.66;5118279;28;20796;-48
2021/05/04 04:49:07;;;;;;;17.07;9.40;;;;;;;20.33;35.55;99286.63;5114675;28;20490;-48
2021/05/04 04:51:34;;;;;;;12.70;7.30;;;;;;;18.26;37.44;99286.69;5117984;28;20471;-50
2021/05/04 04:54:01;;;;;;;14.43;6.43;;;;;;;18.17;37.69;99282.44;5114618;28;20570;-52
2021/05/04 04:56:27;;;;;;;10.60;6.87;;;;;;;18.39;38.08;99283.00;5117977;28;20454;-47
2021/05/04 04:58:54;;;;;;;17.63;9.60;;;;;;;18.16;38.14;99278.09;5116735;28;20477;-48
2021/05/04 05:01:20;;;;;;;19.97;10.47;;;;;;;18.46;37.71;99276.81;5117782;28;20486;-51
2021/05/04 05:03:47;;;;;;;6.97;3.90;;;;;;;18.15;38.42;99263.34;5108709;28;20562;-50
2021/05/04 05:06:15;;;;;;;15.97;7.50;;;;;;;17.48;39.16;99256.25;5117764;28;20509;-47
2021/05/04 05:08:41;;;;;;;15.83;6.63;;;;;;;18.71;37.94;99254.69;5116422;28;20558;-49
2021/05/04 05:11:08;;;;;;;14.73;6.83;;;;;;;18.78;38.08;99258.06;5117061;28;20468;-49
2021/05/04 05:13:35;;;;;;;12.77;6.93;;;;;;;18.01;40.14;99255.66;5116230;28;20461;-47
2021/05/04 05:16:01;;;;;;;11.90;5.03;;;;;;;17.61;40.39;99252.63;5117591;28;20451;-49
2021/05/04 05:18:28;;;;;;;12.13;5.03;;;;;;;17.70;40.54;99251.66;5116162;28;20546;-55
2021/05/04 05:20:54;;;;;;;24.00;11.87;;;;;;;18.78;39.44;99243.25;5097526;28;20482;-53
2021/05/04 05:23:22;;;;;;;12.07;6.40;;;;;;;17.86;41.65;99234.09;5116309;28;20467;-48
2021/05/04 05:25:48;;;;;;;19.17;9.13;;;;;;;18.34;41.88;99232.59;5117215;28;20502;-51
2021/05/04 05:28:15;;;;;;;15.00;7.30;;;;;;;17.26;42.66;99225.19;5117271;28;20770;-50
2021/05/04 05:30:42;;;;;;;16.83;7.80;;;;;;;18.18;41.33;99213.69;5100685;28;20562;-49
2021/05/04 05:33:09;;;;;;;30.73;14.30;;;;;;;17.64;42.55;99210.03;5117125;28;20480;-51
2021/05/04 05:35:36;;;;;;;15.27;8.40;;;;;;;18.50;41.23;99214.97;5113543;28;20483;-52
2021/05/04 05:38:23;;;;;;;17.67;9.03;;;;;;;18.18;41.27;99201.50;5111884;28;20460;-52
2021/05/04 05:40:50;;;;;;;38.97;16.13;;;;;;;19.45;40.20;99195.06;5116756;28;20494;-54
2021/05/04 05:43:17;;;;;;;21.50;12.40;;;;;;;18.14;41.83;99197.22;5114093;28;20823;-52
2021/05/04 05:45:43;;;;;;;16.70;8.33;;;;;;;18.29;42.36;99195.25;5116924;28;20618;-51
2021/05/04 05:48:10;;;;;;;34.33;17.97;;;;;;;19.78;39.60;99190.03;5116762;28;20552;-52
2021/05/04 05:50:37;;;;;;;15.60;9.00;;;;;;;18.75;41.19;99185.84;5079292;28;20568;-52
2021/05/04 05:53:04;;;;;;;13.93;7.43;;;;;;;18.26;42.02;99182.25;5116924;28;20475;-50
2021/05/04 05:55:31;;;;;;;11.33;6.07;;;;;;;18.48;41.84;99178.44;5105743;28;20487;-54
2021/05/04 05:57:58;;;;;;;15.63;7.97;;;;;;;18.57;41.68;99171.34;5117038;28;20481;-49
2021/05/04 06:00:26;;;;;;;19.77;11.00;;;;;;;18.29;42.51;99158.72;5114833;28;20475;-52
2021/05/04 06:02:52;;;;;;;15.47;7.70;;;;;;;17.89;42.77;99157.53;5116706;28;20478;-48
2021/05/04 06:05:19;;;;;;;58.10;28.20;;;;;;;18.84;41.33;99141.28;5115375;28;20484;-51
2021/05/04 06:07:51;;;;;;;10.67;4.53;;;;;;;17.64;43.47;99140.47;5117040;28;20462;-53
2021/05/04 06:10:17;;;;;;;10.03;5.93;;;;;;;17.73;43.45;99125.59;5113267;28;20484;-49
2021/05/04 06:12:44;;;;;;;15.50;5.80;;;;;;;18.19;42.24;99130.16;5116436;28;20599;-50
2021/05/04 06:15:13;;;;;;;12.87;8.70;;;;;;;18.72;41.70;99113.59;5115339;27;20477;-51
2021/05/04 06:17:39;;;;;;;32.00;16.60;;;;;;;19.37;40.48;99113.28;5116444;28;20501;-50
2021/05/04 06:20:07;;;;;;;14.53;8.50;;;;;;;18.77;41.53;99108.31;5109286;28;20828;-49
2021/05/04 06:22:34;;;;;;;11.63;6.00;;;;;;;18.67;41.09;99098.91;5116420;28;20473;-50
2021/05/04 06:25:01;;;;;;;26.50;12.83;;;;;;;19.45;40.52;99098.31;5104127;28;20520;-51
2021/05/04 06:27:28;;;;;;;10.00;6.03;;;;;;;18.29;42.55;99096.94;5116314;28;20828;-51
2021/05/04 06:29:57;;;;;;;11.33;6.60;;;;;;;18.25;42.41;99089.19;5104971;28;20484;-46
2021/05/04 06:32:25;;;;;;;18.40;8.90;;;;;;;18.78;42.46;99086.53;5115893;28;20478;-49
2021/05/04 06:34:53;;;;;;;11.50;6.03;;;;;;;18.04;43.33;99072.94;5114541;28;20478;-51
2021/05/04 06:37:21;;;;;;;22.80;12.37;;;;;;;18.66;42.74;99069.31;5116532;28;20496;-47
2021/05/04 06:39:47;;;;;;;19.60;11.47;;;;;;;19.30;41.54;99068.13;5111021;28;20469;-49
2021/05/04 06:42:14;;;;;;;13.90;7.40;;;;;;;17.74;44.13;99069.94;5116212;28;20479;-50
2021/05/04 06:44:40;;;;;;;8.03;4.23;;;;;;;17.99;43.68;99069.56;5114181;28;20559;-50
2021/05/04 06:47:10;;;;;;;9.47;5.90;;;;;;;18.02;43.67;99053.84;5116146;28;20821;-51
2021/05/04 06:49:38;;;;;;;12.87;7.27;;;;;;;18.14;44.21;99051.06;5114059;28;20476;-47
2021/05/04 06:52:05;;;;;;;10.90;5.03;;;;;;;18.51;42.97;99046.09;5116192;28;20776;-50
2021/05/04 06:54:32;;;;;;;24.30;12.07;;;;;;;18.85;42.73;99038.50;5091968;28;20486;-52
2021/05/04 06:56:58;;;;;;;34.13;19.27;;;;;;;19.39;42.51;99033.91;5115501;28;20463;-47
2021/05/04 06:59:25;;;;;;;7.50;3.90;;;;;;;18.18;43.59;99039.72;5109762;28;20530;-49
2021/05/04 07:01:52;;;;;;;10.97;6.50;;;;;;;18.40;43.28;99031.50;5107791;28;20525;-48
2021/05/04 07:04:20;;;;;;;17.00;9.73;;;;;;;18.70;42.61;99021.38;5095432;28;20476;-49
2021/05/04 07:06:46;;;;;;;11.53;6.00;;;;;;;18.95;42.31;99027.84;5105342;28;20491;-47
2021/05/04 07:09:13;;;;;;;8.17;4.77;;;;;;;18.03;44.65;99016.44;5108325;28;20837;-52
2021/05/04 07:11:43;;;;;;;7.87;5.17;;;;;;;18.78;42.86;99010.78;5115157;28;20484;-50
2021/05/04 07:14:10;;;;;;;15.17;6.80;;;;;;;18.89;42.51;99010.56;5113150;28;20511;-53
2021/05/04 07:16:37;;;;;;;13.57;5.67;;;;;;;18.89;41.62;99011.44;5115343;28;20455;-49
2021/05/04 07:19:04;;;;;;;15.90;9.27;;;;;;;19.12;41.43;99002.25;5092990;28;20521;-53
2021/05/04 07:21:33;;;;;;;3.60;2.20;;;;;;;17.81;44.58;98998.53;5094839;28;20855;-52
2021/05/04 07:23:59;;;;;;;7.47;5.20;;;;;;;18.41;43.08;98988.81;5093340;28;20579;-47
2021/05/04 07:26:27;;;;;;;6.43;3.80;;;;;;;16.97;46.06;98991.88;5095092;28;20862;-52
2021/05/04 07:28:54;;;;;;;6.93;4.43;;;;;;;17.75;45.11;98988.19;5106919;28;20477;-47
2021/05/04 07:31:20;;;;;;;12.47;5.80;;;;;;;18.56;43.06;98992.06;5115326;28;20479;-50
2021/05/04 07:33:48;;;;;;;28.40;14.27;;;;;;;19.04;41.85;98972.81;5111159;28;20565;-49
2021/05/04 07:36:14;;;;;;;12.13;4.80;;;;;;;18.71;41.95;98976.06;5111882;28;20463;-46
2021/05/04 07:38:42;;;;;;;6.10;2.97;;;;;;;17.43;44.33;98972.16;5113322;28;20482;-49
2021/05/04 07:41:08;;;;;;;10.13;4.47;;;;;;;17.99;43.18;98971.28;5114572;28;20894;-49
2021/05/04 07:43:35;;;;;;;19.13;9.17;;;;;;;18.15;43.18;98960.63;5113198;28;20765;-50
2021/05/04 07:46:02;;;;;;;15.17;7.23;;;;;;;18.62;42.59;98958.84;5115498;28;20483;-47
2021/05/04 07:48:29;;;;;;;7.37;3.27;;;;;;;17.86;43.68;98970.63;5105465;28;20491;-50
2021/05/04 07:50:56;;;;;;;13.70;5.27;;;;;;;18.49;42.93;98959.97;5114720;28;20480;-50
2021/05/04 07:53:22;;;;;;;6.87;3.20;;;;;;;17.92;43.51;98954.88;5113761;28;20463;-48
2021/05/04 07:55:50;;;;;;;10.67;5.17;;;;;;;18.25;42.58;98959.53;5115254;28;20507;-48
2021/05/04 07:58:16;;;;;;;12.53;4.90;;;;;;;18.12;42.73;98945.88;5115218;28;20550;-50
2021/05/04 08:00:43;;;;;;;6.63;3.87;;;;;;;18.60;42.77;98950.19;5112330;28;20467;-50
2021/05/04 08:03:09;;;;;;;9.20;4.63;;;;;;;18.16;42.55;98942.28;5115112;28;20475;-47
2021/05/04 08:05:36;;;;;;;8.33;3.43;;;;;;;18.35;42.41;98941.94;5110439;28;20488;-47
2021/05/04 08:08:03;;;;;;;4.60;2.87;;;;;;;19.00;41.90;98940.66;5115178;28;20456;-49
2021/05/04 08:10:30;;;;;;;8.27;4.37;;;;;;;18.81;42.00;98929.72;5112251;28;20477;-47
2021/05/04 08:12:57;;;;;;;9.77;3.90;;;;;;;18.49;43.28;98936.47;5115241;28;20484;-48
2021/05/04 08:15:24;;;;;;;5.10;2.57;;;;;;;19.31;40.59;98944.34;5116442;28;20957;-47
2021/05/04 08:17:55;;;;;;;8.17;3.63;;;;;;;18.59;42.75;98935.41;5118717;28;20477;-48
2021/05/04 08:20:25;;;;;;;5.83;2.20;;;;;;;18.08;43.31;98921.59;5113420;28;20476;-48
2021/05/04 08:22:52;;;;;;;8.93;2.40;;;;;;;17.50;44.05;98941.66;5118482;28;20486;-49
2021/05/04 08:25:19;;;;;;;4.15;2.35;;;;;;;18.12;43.52;98918.91;5069105;28;20974;-48
2021/05/04 08:27:46;;;;;;;6.80;2.17;;;;;;;18.51;42.18;98910.34;5094578;28;20762;-48
2021/05/04 08:30:15;;;;;;;7.57;3.83;;;;;;;18.85;41.94;98892.19;5086259;28;20576;-49
2021/05/04 08:32:55;;;;;;;9.23;4.80;;;;;;;18.85;41.79;98907.88;5098048;28;21172;-49
2021/05/04 08:35:21;;;;;;;3.43;2.00;;;;;;;18.49;42.33;98908.63;5096485;28;20479;-49
2021/05/04 08:37:48;;;;;;;5.43;1.93;;;;;;;18.30;43.18;98934.22;5097824;28;20918;-49
2021/05/04 08:40:15;;;;;;;5.93;3.57;;;;;;;19.10;41.52;98906.50;5096632;28;20475;-48
2021/05/04 08:42:42;;;;;;;6.87;2.80;;;;;;;19.23;41.24;98910.53;5118305;28;20492;-47
2021/05/04 08:45:09;;;;;;;8.67;4.67;;;;;;;19.11;41.51;98890.78;5116695;28;20480;-51
2021/05/04 08:47:37;;;;;;;5.20;2.10;;;;;;;18.52;42.62;98901.59;5117893;28;20487;-48
2021/05/04 08:50:05;;;;;;;6.73;3.17;;;;;;;19.41;41.03;98900.53;5091139;28;20774;-47
2021/05/04 08:52:32;;;;;;;9.30;3.83;;;;;;;18.74;41.64;98900.28;5118137;28;20483;-48
2021/05/04 08:54:58;;;;;;;7.07;3.00;;;;;;;19.54;40.56;98894.09;5115794;28;20473;-52
2021/05/04 08:57:25;;;;;;;10.10;5.87;;;;;;;19.24;40.80;98916.63;5115255;28;20449;-51
2021/05/04 08:59:51;;;;;;;8.20;2.83;;;;;;;17.95;43.07;98907.84;5095401;28;20482;-49
2021/05/04 09:02:20;;;;;;;7.37;2.90;;;;;;;18.95;41.42;98892.84;5102628;28;20484;-48
2021/05/04 09:04:49;;;;;;;12.43;4.57;;;;;;;19.42;40.03;98891.78;5103793;28;20560;-49
2021/05/04 09:07:20;;;;;;;9.13;3.93;;;;;;;18.10;42.33;98899.81;5117701;28;20572;-49
2021/05/04 09:10:16;;;;;;;5.90;2.53;;;;;;;18.69;41.67;98888.19;5092379;28;20485;-49
2021/05/04 09:12:47;;;;;;;11.53;5.37;;;;;;;18.44;42.16;98904.38;5115979;28;20495;-48
2021/05/04 09:15:45;;;;;;;8.60;1.90;;;;;;;18.53;41.60;98898.09;5094154;28;20568;-53
2021/05/04 09:21:33;;;;;;;5.60;2.40;;;;;;;18.32;42.41;98898.50;5115658;28;20461;-50
2021/05/04 09:23:59;;;;;;;9.20;4.20;;;;;;;18.88;41.42;98876.44;5115375;28;20485;-49
2021/05/04 09:26:33;;;;;;;8.50;4.70;;;;;;;18.54;43.03;98890.25;5116848;28;20477;-48
2021/05/04 09:29:00;;;;;;;7.20;3.77;;;;;;;18.78;43.59;98879.31;5115046;28;20926;-49
2021/05/04 09:31:28;;;;;;;14.30;3.63;;;;;;;19.18;44.03;98874.94;5116731;28;20871;-49
2021/05/04 09:33:56;;;;;;;4.27;2.27;;;;;;;18.58;44.56;98875.38;5104134;28;20530;-48
2021/05/04 09:36:47;;;;;;;4.97;2.70;;;;;;;18.82;44.89;98862.69;5116499;28;20449;-48
2021/05/04 09:39:25;;;;;;;5.50;3.23;;;;;;;19.65;42.81;98857.22;5105942;28;20565;-50
2021/05/04 09:41:52;;;;;;;11.53;5.50;;;;;;;20.14;42.37;98845.53;5116546;28;20480;-50
2021/05/04 09:44:37;;;;;;;7.03;3.47;;;;;;;19.56;42.53;98842.66;5109219;28;20480;-50
2021/05/04 09:47:05;;;;;;;18.20;8.43;;;;;;;20.53;40.76;98847.88;5117223;28;20715;-48
2021/05/04 09:49:32;;;;;;;6.30;3.10;;;;;;;18.70;43.26;98846.38;5105227;28;20926;-49
2021/05/04 09:52:36;;;;;;;6.17;2.97;;;;;;;19.80;41.22;98840.25;5116805;28;20481;-49
2021/05/04 09:55:06;;;;;;;4.77;2.10;;;;;;;19.71;40.84;98843.13;5103314;28;20544;-48
2021/05/04 09:57:35;;;;;;;11.80;5.20;;;;;;;19.77;41.48;98832.50;5116876;28;20459;-52
2021/05/04 10:00:04;;;;;;;19.80;8.90;;;;;;;20.08;40.36;98831.69;5113792;28;20472;-51
2021/05/04 10:02:31;;;;;;;4.77;2.40;;;;;;;19.23;40.97;98833.88;5116677;28;20476;-48
2021/05/04 10:04:59;;;;;;;12.73;4.93;;;;;;;19.38;40.53;98819.56;5109125;28;20485;-47
2021/05/04 10:07:27;;;;;;;4.90;2.37;;;;;;;18.92;41.76;98821.53;5116770;28;20477;-49
2021/05/04 10:09:54;;;;;;;2.80;1.33;;;;;;;19.09;40.68;98821.16;5090219;28;20542;-48
2021/05/04 10:12:21;;;;;;;6.87;3.17;;;;;;;19.05;40.53;98825.59;5095875;28;20477;-49
2021/05/04 10:14:49;;;;;;;5.27;1.90;;;;;;;19.24;39.99;98812.94;5094519;28;20477;-47
2021/05/04 10:17:17;;;;;;;5.47;2.63;;;;;;;18.56;42.38;98820.56;5095861;28;20556;-50
2021/05/04 10:19:44;;;;;;;3.50;1.23;;;;;;;18.42;42.13;98802.59;5092760;28;20538;-51
2021/05/04 10:22:12;;;;;;;13.43;5.53;;;;;;;20.79;38.51;98801.69;5095875;28;20477;-51
2021/05/04 10:24:41;;;;;;;7.97;3.70;;;;;;;19.85;39.84;98798.28;5093828;28;20817;-52
2021/05/04 10:27:08;;;;;;;5.43;2.00;;;;;;;19.63;39.61;98808.47;5098281;28;20782;-47
2021/05/04 10:29:36;;;;;;;12.93;4.60;;;;;;;19.31;40.22;98808.41;5086432;28;20481;-48
2021/05/04 10:32:03;;;;;;;9.17;2.90;;;;;;;18.75;42.48;98799.25;5095567;28;20484;-47
2021/05/04 10:34:33;;;;;;;7.10;2.37;;;;;;;18.55;42.51;98797.94;5092478;28;20514;-49
2021/05/04 10:37:02;;;;;;;7.80;3.60;;;;;;;19.14;42.28;98804.44;5095140;28;20466;-48
2021/05/04 10:39:37;;;;;;;8.60;3.67;;;;;;;19.91;42.26;98808.59;5077223;28;20549;-51
2021/05/04 10:42:06;;;;;;;7.33;3.40;;;;;;;18.65;45.17;98811.66;5107821;28;20530;-51
2021/05/04 10:45:04;;;;;;;13.07;7.27;;;;;;;19.05;45.02;98812.53;5094135;28;20496;-51
2021/05/04 10:47:47;;;;;;;7.57;4.10;;;;;;;19.35;45.45;98814.41;5089811;28;20482;-50
2021/05/04 10:50:16;;;;;;;13.17;5.63;;;;;;;19.13;46.43;98814.97;5083757;28;20477;-49
2021/05/04 10:53:03;;;;;;;4.60;2.90;;;;;;;18.47;47.86;98805.94;5095744;28;20466;-55
2021/05/04 10:56:08;;;;;;;22.03;6.03;;;;;;;17.99;48.50;98821.72;5080398;28;20492;-53
2021/05/04 10:58:55;;;;;;;11.90;5.90;;;;;;;18.39;48.70;98797.44;5113207;28;20515;-56
2021/05/04 11:01:21;;;;;;;20.00;7.83;;;;;;;19.12;46.42;98792.34;5115629;28;20484;-57
2021/05/04 11:03:50;;;;;;;7.77;5.60;;;;;;;19.72;46.13;98792.53;5097642;28;20463;-54
2021/05/04 11:06:48;;;;;;;12.80;4.67;;;;;;;19.78;46.06;98781.91;5099457;28;20496;-53
2021/05/04 11:09:18;;;;;;;7.20;4.43;;;;;;;19.66;45.42;98777.00;5109179;28;20896;-53
2021/05/04 11:11:47;;;;;;;13.63;5.23;;;;;;;20.57;43.55;98770.06;5115528;28;20477;-54
2021/05/04 11:14:32;;;;;;;10.10;4.63;;;;;;;20.03;44.16;98769.91;5113014;28;20483;-52
2021/05/04 11:17:12;;;;;;;7.37;3.47;;;;;;;20.66;42.69;98753.19;5115429;28;20455;-53
2021/05/04 11:19:41;;;;;;;9.43;4.67;;;;;;;21.36;41.04;98770.16;5105663;28;20525;-52
2021/05/04 11:22:16;;;;;;;8.53;4.47;;;;;;;21.04;40.88;98759.00;5115666;28;20538;-52
2021/05/04 11:24:47;;;;;;;9.70;4.73;;;;;;;21.76;40.24;98756.56;5113213;28;20556;-53
2021/05/04 11:27:18;;;;;;;18.93;7.20;;;;;;;21.30;40.62;98754.63;5109193;28;20933;-54
2021/05/04 11:29:47;;;;;;;12.63;6.07;;;;;;;21.75;38.97;98744.34;5100035;28;20962;-54
2021/05/04 11:32:15;;;;;;;8.60;4.20;;;;;;;20.63;39.42;98741.06;5097241;28;20494;-53